Time;durP1;ratioP1;P1;durP2;ratioP2;P2;SDS_P1;SDS_P2;PMS_P1;PMS_P2;Temp;Humidity;BMP_temperature;BMP_pressure;BME280_temperature;BME280_humidity;BME280_pressure;Samples;Min_cycle;Max_cycle;Signal;HPM_P1;HPM_P2
2022/04/28 00:00:19;;;;;;;6.68;6.25;;;;;;;-141.48;100.00;69781.59;5199380;28;20121;-55
2022/04/28 00:02:50;;;;;;;12.15;6.85;;;;;;;-141.48;100.00;69781.59;5199306;28;20026;-56
2022/04/28 00:05:21;;;;;;;12.95;6.65;;;;;;;-141.48;100.00;69781.59;5182704;28;20461;-55
2022/04/28 00:07:52;;;;;;;6.05;5.50;;;;;;;-141.48;100.00;69781.59;5182868;28;20026;-56
2022/04/28 00:10:23;;;;;;;7.15;6.50;;;;;;;-141.48;100.00;69781.59;5199497;28;20058;-57
2022/04/28 00:12:54;;;;;;;8.95;7.47;;;;;;;-141.48;100.00;69781.59;5182967;28;20060;-56
2022/04/28 00:15:25;;;;;;;6.82;6.32;;;;;;;-141.48;100.00;69781.59;5198911;28;20498;-57
2022/04/28 00:17:56;;;;;;;7.07;5.82;;;;;;;-141.48;100.00;69781.59;5199251;28;20498;-57
2022/04/28 00:20:26;;;;;;;7.65;6.32;;;;;;;-141.48;100.00;69781.59;5182748;28;20030;-59
2022/04/28 00:22:57;;;;;;;9.68;8.45;;;;;;;-141.48;100.00;69781.59;5182795;28;20026;-55
2022/04/28 00:25:27;;;;;;;9.27;7.00;;;;;;;-141.48;100.00;69781.59;5182447;28;20018;-57
2022/04/28 00:27:58;;;;;;;7.95;7.28;;;;;;;-141.48;100.00;69781.59;5183879;28;20026;-53
2022/04/28 00:30:28;;;;;;;6.45;6.05;;;;;;;-141.48;100.00;69781.59;5183384;28;20124;-56
2022/04/28 00:32:59;;;;;;;7.35;6.70;;;;;;;-141.48;100.00;69781.59;5203054;28;20032;-59
2022/04/28 00:35:29;;;;;;;18.15;7.63;;;;;;;-141.48;100.00;69781.59;5202681;28;20024;-57
2022/04/28 00:38:00;;;;;;;8.13;7.43;;;;;;;-141.48;100.00;69781.59;5186747;28;20041;-57
2022/04/28 00:40:30;;;;;;;7.75;7.00;;;;;;;-141.48;100.00;69781.59;5186379;28;20045;-57
2022/04/28 00:43:26;;;;;;;13.38;8.00;;;;;;;-141.48;100.00;69781.59;5202781;28;20030;-55
2022/04/28 00:45:51;;;;;;;8.20;5.93;;;;;;;-141.48;100.00;69781.59;5187176;28;20034;-56
2022/04/28 00:51:12;;;;;;;7.18;6.47;;;;;;;-141.48;100.00;69781.59;5187590;28;20485;-55
2022/04/28 00:53:46;;;;;;;7.10;6.10;;;;;;;-141.48;100.00;69781.59;5187184;28;20490;-58
2022/04/28 00:56:17;;;;;;;8.07;7.05;;;;;;;-141.48;100.00;69781.59;5186882;28;20030;-58
2022/04/28 00:58:49;;;;;;;7.78;6.43;;;;;;;-141.48;100.00;69781.59;5186389;28;20095;-57
2022/04/28 01:01:20;;;;;;;12.00;7.82;;;;;;;-141.48;100.00;69781.59;5186063;28;20116;-59
2022/04/28 01:03:50;;;;;;;10.05;9.13;;;;;;;-141.48;100.00;69781.59;5185673;28;20129;-57
2022/04/28 01:06:22;;;;;;;10.35;7.78;;;;;;;-141.48;100.00;69781.59;5202553;28;20578;-57
2022/04/28 01:08:52;;;;;;;12.40;7.65;;;;;;;-141.48;100.00;69781.59;5186260;28;20406;-57
2022/04/28 01:11:23;;;;;;;9.57;7.60;;;;;;;-141.48;100.00;69781.59;5186355;28;20022;-58
2022/04/28 01:13:53;;;;;;;9.20;7.25;;;;;;;-141.48;100.00;69781.59;5201917;28;20030;-57
2022/04/28 01:16:24;;;;;;;10.23;7.38;;;;;;;-141.48;100.00;69781.59;5202159;28;20022;-57
2022/04/28 01:18:54;;;;;;;9.93;9.15;;;;;;;-141.48;100.00;69781.59;5202175;28;20022;-57
2022/04/28 01:21:25;;;;;;;11.40;7.82;;;;;;;-141.48;100.00;69781.59;5202150;28;20018;-57
2022/04/28 01:23:56;;;;;;;16.00;8.30;;;;;;;-141.48;100.00;69781.59;5185461;28;20129;-57
2022/04/28 01:26:27;;;;;;;9.10;8.18;;;;;;;-141.48;100.00;69781.59;5185299;28;20025;-57
2022/04/28 01:28:58;;;;;;;12.85;8.50;;;;;;;-141.48;100.00;69781.59;5186978;28;20021;-57
2022/04/28 01:31:28;;;;;;;9.35;7.30;;;;;;;-141.48;100.00;69781.59;5185267;28;20030;-58
2022/04/28 01:33:59;;;;;;;6.65;6.15;;;;;;;-141.48;100.00;69781.59;5186343;28;20025;-57
2022/04/28 01:36:29;;;;;;;7.43;6.72;;;;;;;-141.48;100.00;69781.59;5201943;28;20022;-58
2022/04/28 01:38:59;;;;;;;7.20;6.70;;;;;;;-141.48;100.00;69781.59;5201838;28;20033;-58
2022/04/28 01:41:30;;;;;;;8.82;8.27;;;;;;;-141.48;100.00;69781.59;5185104;28;20024;-58
2022/04/28 01:44:01;;;;;;;11.05;8.35;;;;;;;-141.48;100.00;69781.59;5184097;28;20029;-58
2022/04/28 01:46:32;;;;;;;9.45;8.70;;;;;;;-141.48;100.00;69781.59;5185782;28;20022;-58
2022/04/28 01:49:02;;;;;;;7.93;7.32;;;;;;;-141.48;100.00;69781.59;5201566;28;20033;-57
2022/04/28 01:57:11;;;;;;;11.85;7.80;;;;;;;-141.48;100.00;69781.59;5186358;28;20187;-57
2022/04/28 01:59:41;;;;;;;16.75;9.23;;;;;;;-141.48;100.00;69781.59;5184658;28;20021;-57
2022/04/28 02:02:12;;;;;;;7.00;6.30;;;;;;;-141.48;100.00;69781.59;5201412;28;20095;-58
2022/04/28 02:04:46;;;;;;;22.80;8.90;;;;;;;-141.48;100.00;69781.59;5200909;28;20033;-57
2022/04/28 02:07:16;;;;;;;15.60;7.93;;;;;;;-141.48;100.00;69781.59;5201284;28;20018;-58
2022/04/28 02:09:47;;;;;;;9.43;8.05;;;;;;;-141.48;100.00;69781.59;5201192;28;20044;-58
2022/04/28 02:12:17;;;;;;;12.07;7.78;;;;;;;-141.48;100.00;69781.59;5184610;28;20030;-58
2022/04/28 02:14:48;;;;;;;9.00;8.43;;;;;;;-141.48;100.00;69781.59;5200806;28;20029;-57
2022/04/28 02:17:20;;;;;;;8.55;7.50;;;;;;;-141.48;100.00;69781.59;5209243;23;20391;-77
2022/04/28 02:19:50;;;;;;;9.68;8.88;;;;;;;-141.48;100.00;69781.59;5230462;28;20097;-77
2022/04/28 02:25:47;;;;;;;9.07;8.48;;;;;;;-141.48;100.00;69781.59;5236790;28;20098;-77
2022/04/28 02:28:18;;;;;;;9.85;8.50;;;;;;;-141.48;100.00;69781.59;5233522;28;20029;-78
2022/04/28 02:30:48;;;;;;;11.70;7.85;;;;;;;-141.48;100.00;69781.59;5227942;28;20487;-78
2022/04/28 02:33:19;;;;;;;9.52;8.27;;;;;;;-141.48;100.00;69781.59;5228767;28;20029;-77
2022/04/28 02:35:49;;;;;;;10.20;9.25;;;;;;;-141.48;100.00;69781.59;5230178;28;20085;-79
2022/04/28 02:38:20;;;;;;;12.07;7.82;;;;;;;-141.48;100.00;69781.59;5213545;28;20029;-78
2022/04/28 02:40:50;;;;;;;13.05;8.57;;;;;;;-141.48;100.00;69781.59;5229435;28;20060;-78
2022/04/28 02:43:20;;;;;;;7.35;6.95;;;;;;;-141.48;100.00;69781.59;5228358;28;20536;-78
2022/04/28 02:45:51;;;;;;;11.75;9.30;;;;;;;-141.48;100.00;69781.59;5228497;28;20095;-78
2022/04/28 02:48:22;;;;;;;11.00;9.98;;;;;;;-141.48;100.00;69781.59;5249414;22;20037;-57
2022/04/28 02:50:52;;;;;;;10.48;9.73;;;;;;;-141.48;100.00;69781.59;5209162;28;20021;-56
2022/04/28 02:53:23;;;;;;;10.82;8.73;;;;;;;-141.48;100.00;69781.59;5225376;28;20090;-57
2022/04/28 02:55:53;;;;;;;7.88;7.28;;;;;;;-141.48;100.00;69781.59;5208966;28;20032;-57
2022/04/28 02:58:24;;;;;;;10.75;9.75;;;;;;;-141.48;100.00;69781.59;5209109;28;20094;-57
2022/04/28 03:00:54;;;;;;;9.48;8.68;;;;;;;-141.48;100.00;69781.59;5208620;28;20043;-57
2022/04/28 03:03:25;;;;;;;12.50;9.32;;;;;;;-141.48;100.00;69781.59;5208546;28;20059;-57
2022/04/28 03:11:33;;;;;;;13.43;8.48;;;;;;;-141.48;100.00;69781.59;5211166;28;20037;-89
2022/04/28 03:14:04;;;;;;;9.63;8.63;;;;;;;-141.48;100.00;69781.59;5191122;28;20025;-89
2022/04/28 03:16:35;;;;;;;9.95;9.10;;;;;;;-141.48;100.00;69781.59;5193480;28;20052;-89
2022/04/28 03:19:05;;;;;;;9.95;9.10;;;;;;;-141.48;100.00;69781.59;5198923;28;20163;-90
2022/04/28 03:21:37;;;;;;;12.90;11.73;;;;;;;-141.48;100.00;69781.59;5202539;28;20442;-89
2022/04/28 03:24:07;;;;;;;12.07;10.82;;;;;;;-141.48;100.00;69781.59;5202539;28;20036;-89
2022/04/28 03:26:39;;;;;;;11.32;10.07;;;;;;;-141.48;100.00;69781.59;5202542;28;20053;-89
2022/04/28 03:29:09;;;;;;;9.90;8.93;;;;;;;-141.48;100.00;69781.59;5205580;28;20048;-89
2022/04/28 03:31:39;;;;;;;9.52;8.60;;;;;;;-141.48;100.00;69781.59;5205763;28;20018;-90
2022/04/28 03:34:10;;;;;;;16.17;9.80;;;;;;;-141.48;100.00;69781.59;5193707;28;20506;-90
2022/04/28 03:36:52;;;;;;;10.90;8.90;;;;;;;-141.48;100.00;69781.59;5208761;28;20029;-90
2022/04/28 03:39:23;;;;;;;19.08;10.65;;;;;;;-141.48;100.00;69781.59;5189763;28;20537;-89
2022/04/28 03:41:53;;;;;;;11.18;10.07;;;;;;;-141.48;100.00;69781.59;5191120;28;20045;-90
2022/04/28 03:44:23;;;;;;;10.88;9.38;;;;;;;-141.48;100.00;69781.59;5189217;28;20029;-90
2022/04/28 03:46:54;;;;;;;10.35;9.55;;;;;;;-141.48;100.00;69781.59;5188349;28;20040;-90
2022/04/28 03:49:24;;;;;;;10.90;9.88;;;;;;;-141.48;100.00;69781.59;5189930;28;20021;-90
2022/04/28 03:51:55;;;;;;;12.13;10.88;;;;;;;-141.48;100.00;69781.59;5189074;28;20390;-89
2022/04/28 03:54:25;;;;;;;11.10;10.15;;;;;;;-141.48;100.00;69781.59;5188544;28;20579;-90
2022/04/28 03:56:55;;;;;;;9.95;9.25;;;;;;;-141.48;100.00;69781.59;5188179;28;20048;-89
2022/04/28 03:59:25;;;;;;;9.43;8.80;;;;;;;-141.48;100.00;69781.59;5188418;28;20025;-90
2022/04/28 04:01:56;;;;;;;12.27;8.73;;;;;;;-141.48;100.00;69781.59;5188271;28;20056;-90
2022/04/28 04:04:26;;;;;;;12.20;10.27;;;;;;;-141.48;100.00;69781.59;5187731;28;20029;-89
2022/04/28 04:06:56;;;;;;;13.98;10.63;;;;;;;-141.48;100.00;69781.59;5191900;28;20039;-90
2022/04/28 04:09:27;;;;;;;11.55;10.02;;;;;;;-141.48;100.00;69781.59;5193097;28;20029;-90
2022/04/28 04:11:57;;;;;;;12.60;11.52;;;;;;;-141.48;100.00;69781.59;5192350;28;20025;-90
2022/04/28 04:14:28;;;;;;;10.02;9.00;;;;;;;-141.48;100.00;69781.59;5191964;28;20032;-89
2022/04/28 04:16:58;;;;;;;11.02;10.25;;;;;;;-141.48;100.00;69781.59;5192594;28;20029;-89
2022/04/28 04:19:29;;;;;;;13.68;12.00;;;;;;;-141.48;100.00;69781.59;5192789;28;20025;-90
2022/04/28 04:21:59;;;;;;;10.95;9.98;;;;;;;-141.48;100.00;69781.59;5212124;28;20037;-88
2022/04/28 04:24:30;;;;;;;13.75;10.88;;;;;;;-141.48;100.00;69781.59;5191698;28;20403;-90
2022/04/28 04:27:00;;;;;;;24.13;10.98;;;;;;;-141.48;100.00;69781.59;5211916;28;20052;-88
2022/04/28 04:29:31;;;;;;;21.85;11.35;;;;;;;-141.48;100.00;69781.59;5210380;28;20194;-90
2022/04/28 04:32:24;;;;;;;12.65;11.43;;;;;;;-141.48;100.00;69781.59;5212150;28;20095;-93
2022/04/28 04:34:55;;;;;;;13.15;12.00;;;;;;;-141.48;100.00;69781.59;5193783;28;20053;-90
2022/04/28 04:37:26;;;;;;;12.48;10.52;;;;;;;-141.48;100.00;69781.59;5193525;28;20051;-90
2022/04/28 04:39:56;;;;;;;12.07;10.88;;;;;;;-141.48;100.00;69781.59;5206822;28;20056;-90
2022/04/28 04:42:27;;;;;;;14.15;11.15;;;;;;;-141.48;100.00;69781.59;5189966;28;20025;-91
2022/04/28 04:44:57;;;;;;;13.70;12.32;;;;;;;-141.48;100.00;69781.59;5192185;28;20026;-90
2022/04/28 04:47:27;;;;;;;14.05;12.73;;;;;;;-141.48;100.00;69781.59;5191289;28;20220;-90
2022/04/28 04:49:58;;;;;;;13.88;12.52;;;;;;;-141.48;100.00;69781.59;5208811;28;20032;-91
2022/04/28 04:52:28;;;;;;;13.25;12.00;;;;;;;-141.48;100.00;69781.59;5208213;28;20060;-90
2022/04/28 04:54:58;;;;;;;13.38;11.95;;;;;;;-141.48;100.00;69781.59;5190382;28;20060;-90
2022/04/28 04:57:29;;;;;;;12.73;11.70;;;;;;;-141.48;100.00;69781.59;5191170;28;20025;-90
2022/04/28 05:00:00;;;;;;;12.70;11.57;;;;;;;-141.48;100.00;69781.59;5191082;28;20029;-90
2022/04/28 05:02:30;;;;;;;14.27;12.85;;;;;;;-141.48;100.00;69781.59;5190665;28;20041;-89
2022/04/28 05:05:01;;;;;;;15.35;12.55;;;;;;;-141.48;100.00;69781.59;5192561;28;20525;-93
2022/04/28 05:07:32;;;;;;;13.20;12.07;;;;;;;-141.48;100.00;69781.59;5192011;28;20395;-91
2022/04/28 05:10:03;;;;;;;13.45;11.90;;;;;;;-141.48;100.00;69781.59;5191221;28;20053;-88
2022/04/28 05:12:33;;;;;;;16.23;11.10;;;;;;;-141.48;100.00;69781.59;5208866;28;20068;-89
2022/04/28 05:15:04;;;;;;;12.45;11.48;;;;;;;-141.48;100.00;69781.59;5190407;28;20113;-89
2022/04/28 05:17:35;;;;;;;16.33;11.70;;;;;;;-141.48;100.00;69781.59;5207266;28;20040;-89
2022/04/28 05:20:06;;;;;;;12.75;11.73;;;;;;;-141.48;100.00;69781.59;5192440;28;20107;-91
2022/04/28 05:22:37;;;;;;;15.00;12.10;;;;;;;-141.48;100.00;69781.59;5191715;28;20479;-90
2022/04/28 05:25:07;;;;;;;12.60;11.55;;;;;;;-141.48;100.00;69781.59;5190422;28;20025;-90
2022/04/28 05:27:37;;;;;;;18.15;12.38;;;;;;;-141.48;100.00;69781.59;5190648;28;20124;-90
2022/04/28 05:30:09;;;;;;;17.33;13.40;;;;;;;-141.48;100.00;69781.59;5191594;28;20655;-92
2022/04/28 05:32:39;;;;;;;13.10;11.85;;;;;;;-141.48;100.00;69781.59;5191929;28;20026;-91
2022/04/28 05:35:10;;;;;;;14.10;13.00;;;;;;;-141.48;100.00;69781.59;5190949;28;20029;-91
2022/04/28 05:37:40;;;;;;;16.73;13.45;;;;;;;-141.48;100.00;69781.59;5191083;28;20098;-91
2022/04/28 05:40:12;;;;;;;15.57;12.18;;;;;;;-141.48;100.00;69781.59;5191142;28;20052;-92
2022/04/28 05:45:47;;;;;;;15.15;13.85;;;;;;;-141.48;100.00;69781.59;5215881;28;20474;-90
2022/04/28 05:48:19;;;;;;;13.75;12.55;;;;;;;-141.48;100.00;69781.59;5191530;28;20022;-88
2022/04/28 05:50:51;;;;;;;15.05;12.75;;;;;;;-141.48;100.00;69781.59;5192054;28;20082;-91
2022/04/28 05:53:21;;;;;;;19.35;14.82;;;;;;;-141.48;100.00;69781.59;5190903;28;20054;-90
2022/04/28 05:55:52;;;;;;;20.83;13.45;;;;;;;-141.48;100.00;69781.59;5190962;28;20025;-90
2022/04/28 05:58:22;;;;;;;15.77;14.43;;;;;;;-141.48;100.00;69781.59;5191299;28;20025;-90
2022/04/28 06:00:52;;;;;;;15.60;11.38;;;;;;;-141.48;100.00;69781.59;5190856;28;20033;-90
2022/04/28 06:03:23;;;;;;;14.05;12.85;;;;;;;-141.48;100.00;69781.59;5192777;28;20080;-90
2022/04/28 06:05:53;;;;;;;14.88;13.77;;;;;;;-141.48;100.00;69781.59;5201012;28;20029;-90
2022/04/28 06:08:23;;;;;;;14.43;12.73;;;;;;;-141.48;100.00;69781.59;5203244;28;20108;-90
2022/04/28 06:10:57;;;;;;;13.70;12.50;;;;;;;-141.48;100.00;69781.59;5206701;28;20052;-91
2022/04/28 06:13:27;;;;;;;15.30;14.10;;;;;;;-141.48;100.00;69781.59;5206927;28;20021;-88
2022/04/28 06:16:01;;;;;;;13.05;12.02;;;;;;;-141.48;100.00;69781.59;5207222;28;20380;-90
2022/04/28 06:18:33;;;;;;;26.08;13.23;;;;;;;-141.48;100.00;69781.59;5222010;28;20032;-92
2022/04/28 06:21:03;;;;;;;12.55;11.35;;;;;;;-141.48;100.00;69781.59;5210036;28;20041;-90
2022/04/28 06:23:34;;;;;;;14.93;13.30;;;;;;;-141.48;100.00;69781.59;5209798;28;20026;-91
2022/04/28 06:26:04;;;;;;;14.45;13.07;;;;;;;-141.48;100.00;69781.59;5206543;28;20028;-90
2022/04/28 06:28:34;;;;;;;12.95;11.85;;;;;;;-141.48;100.00;69781.59;5212072;28;20012;-90
2022/04/28 06:31:06;;;;;;;21.52;11.75;;;;;;;-141.48;100.00;69781.59;5211831;28;20005;-90
2022/04/28 06:33:40;;;;;;;12.15;11.10;;;;;;;-141.48;100.00;69781.59;5212508;28;20025;-90
2022/04/28 06:36:11;;;;;;;13.30;11.98;;;;;;;-141.48;100.00;69781.59;5211325;28;20037;-90
2022/04/28 06:38:42;;;;;;;15.43;12.85;;;;;;;-141.48;100.00;69781.59;5190309;28;20046;-88
2022/04/28 06:41:13;;;;;;;13.75;12.70;;;;;;;-141.48;100.00;69781.59;5171577;28;20050;-90
2022/04/28 06:43:43;;;;;;;13.82;12.25;;;;;;;-141.48;100.00;69781.59;5186999;28;20006;-90
2022/04/28 06:46:13;;;;;;;17.30;12.55;;;;;;;-141.48;100.00;69781.59;5190106;28;20032;-91
2022/04/28 06:48:47;;;;;;;20.33;11.93;;;;;;;-141.48;100.00;69781.59;5209885;28;20017;-91
2022/04/28 06:51:17;;;;;;;15.13;13.68;;;;;;;-141.48;100.00;69781.59;5192796;28;20033;-92
2022/04/28 06:53:48;;;;;;;14.20;11.65;;;;;;;-141.48;100.00;69781.59;5208632;28;20006;-91
2022/04/28 06:56:18;;;;;;;23.05;10.75;;;;;;;-141.48;100.00;69781.59;5208441;28;20036;-91
2022/04/28 06:58:48;;;;;;;13.13;11.27;;;;;;;-141.48;100.00;69781.59;5190951;28;20026;-92
2022/04/28 07:01:19;;;;;;;13.75;12.27;;;;;;;-141.48;100.00;69781.59;5193390;28;20013;-92
2022/04/28 07:03:49;;;;;;;14.50;11.73;;;;;;;-141.48;100.00;69781.59;5210905;28;20014;-91
2022/04/28 07:06:20;;;;;;;17.88;11.68;;;;;;;-141.48;100.00;69781.59;5210166;28;20034;-90
2022/04/28 07:08:53;;;;;;;11.85;10.10;;;;;;;-141.48;100.00;69781.59;5193634;28;20045;-94
2022/04/28 07:11:27;;;;;;;13.98;12.52;;;;;;;-141.48;100.00;69781.59;5209224;28;20022;-93
2022/04/28 07:13:58;;;;;;;24.77;13.20;;;;;;;-141.48;100.00;69781.59;5205278;28;20013;-92
2022/04/28 07:16:28;;;;;;;13.73;12.48;;;;;;;-141.48;100.00;69781.59;5205190;28;20151;-92
2022/04/28 07:19:03;;;;;;;18.05;13.70;;;;;;;-141.48;100.00;69781.59;5210214;28;20026;-93
2022/04/28 07:21:37;;;;;;;12.30;9.70;;;;;;;-141.48;100.00;69781.59;5189153;28;20037;-93
2022/04/28 07:24:08;;;;;;;16.88;11.40;;;;;;;-141.48;100.00;69781.59;5204601;28;20013;-92
2022/04/28 07:27:02;;;;;;;14.73;13.23;;;;;;;-141.48;100.00;69781.59;5185879;28;20081;-91
2022/04/28 07:29:32;;;;;;;13.10;11.40;;;;;;;-141.48;100.00;69781.59;5193290;23;20437;-54
2022/04/28 07:32:03;;;;;;;10.52;9.63;;;;;;;-141.48;100.00;69781.59;5155736;28;20026;-55
2022/04/28 07:34:35;;;;;;;17.17;11.52;;;;;;;-141.48;100.00;69781.59;5165296;28;20034;-57
2022/04/28 07:37:06;;;;;;;12.35;10.68;;;;;;;-141.48;100.00;69781.59;5166869;28;20399;-56
2022/04/28 07:39:36;;;;;;;14.75;11.50;;;;;;;-141.48;100.00;69781.59;5148974;28;20026;-57
2022/04/28 07:42:07;;;;;;;16.58;11.70;;;;;;;-141.48;100.00;69781.59;5148619;28;20024;-55
2022/04/28 07:44:37;;;;;;;13.45;10.07;;;;;;;-141.48;100.00;69781.59;5149056;28;20033;-55
2022/04/28 07:47:08;;;;;;;11.57;10.50;;;;;;;-141.48;100.00;69781.59;5147943;28;20089;-57
2022/04/28 07:49:38;;;;;;;12.07;10.82;;;;;;;-141.48;100.00;69781.59;5147659;28;20030;-56
2022/04/28 07:52:09;;;;;;;17.88;11.00;;;;;;;-141.48;100.00;69781.59;5147481;28;20121;-57
2022/04/28 07:54:39;;;;;;;15.30;10.10;;;;;;;-141.48;100.00;69781.59;5147009;28;20035;-56
2022/04/28 07:57:10;;;;;;;11.95;10.85;;;;;;;-141.48;100.00;69781.59;5147208;28;20484;-57
2022/04/28 07:59:40;;;;;;;16.77;11.07;;;;;;;-141.48;100.00;69781.59;5147545;28;20246;-57
2022/04/28 08:02:13;;;;;;;15.27;10.30;;;;;;;-141.48;100.00;69781.59;5147199;28;20101;-58
2022/04/28 08:04:44;;;;;;;12.95;10.38;;;;;;;-141.48;100.00;69781.59;5134993;28;20121;-58
2022/04/28 08:07:15;;;;;;;13.80;12.50;;;;;;;-141.48;100.00;69781.59;5147603;28;20504;-57
2022/04/28 08:09:45;;;;;;;14.13;10.70;;;;;;;-141.48;100.00;69781.59;5148120;28;20184;-57
2022/04/28 08:12:16;;;;;;;11.20;10.15;;;;;;;-141.48;100.00;69781.59;5146773;28;20030;-57
2022/04/28 08:14:46;;;;;;;11.07;9.98;;;;;;;-141.48;100.00;69781.59;5147277;28;20030;-58
2022/04/28 08:17:17;;;;;;;12.20;8.90;;;;;;;-141.48;100.00;69781.59;5164731;22;20034;-60
2022/04/28 08:19:47;;;;;;;16.13;9.90;;;;;;;-141.48;100.00;69781.59;5182683;28;20110;-61
2022/04/28 08:22:18;;;;;;;9.73;8.82;;;;;;;-141.48;100.00;69781.59;5182827;28;20033;-60
2022/04/28 08:24:48;;;;;;;10.98;9.88;;;;;;;-141.48;100.00;69781.59;5182799;28;20401;-63
2022/04/28 08:27:24;;;;;;;10.40;8.88;;;;;;;-141.48;100.00;69781.59;5182859;28;20126;-62
2022/04/28 08:29:55;;;;;;;10.82;9.25;;;;;;;-141.48;100.00;69781.59;5182720;28;20033;-61
2022/04/28 08:32:25;;;;;;;10.05;9.18;;;;;;;-141.48;100.00;69781.59;5166543;28;20037;-62
2022/04/28 08:34:56;;;;;;;8.32;7.47;;;;;;;-141.48;100.00;69781.59;5182307;28;20367;-61
2022/04/28 08:37:26;;;;;;;10.45;9.48;;;;;;;-141.48;100.00;69781.59;5182752;28;20026;-61
2022/04/28 08:39:57;;;;;;;11.48;10.35;;;;;;;-141.48;100.00;69781.59;5182471;28;20025;-62
2022/04/28 08:42:28;;;;;;;9.02;7.97;;;;;;;-141.48;100.00;69781.59;5183042;28;20470;-60
2022/04/28 08:45:00;;;;;;;11.38;10.25;;;;;;;-141.48;100.00;69781.59;5182456;28;20053;-61
2022/04/28 08:47:31;;;;;;;13.07;10.55;;;;;;;-141.48;100.00;69781.59;5166513;28;20049;-58
2022/04/28 08:50:03;;;;;;;8.95;8.15;;;;;;;-141.48;100.00;69781.59;5166410;28;20091;-60
2022/04/28 08:52:36;;;;;;;15.98;9.93;;;;;;;-141.48;100.00;69781.59;5168835;28;20453;-60
2022/04/28 08:55:08;;;;;;;17.60;9.43;;;;;;;-141.48;100.00;69781.59;5185843;28;20043;-61
2022/04/28 08:57:38;;;;;;;10.13;9.13;;;;;;;-141.48;100.00;69781.59;5169905;28;20476;-60
2022/04/28 09:00:09;;;;;;;11.02;8.20;;;;;;;-141.48;100.00;69781.59;5186089;28;20037;-60
2022/04/28 09:02:40;;;;;;;12.73;10.07;;;;;;;-141.48;100.00;69781.59;5186008;28;20025;-61
2022/04/28 09:05:11;;;;;;;10.15;9.40;;;;;;;-141.48;100.00;69781.59;5169829;28;20025;-60
2022/04/28 09:07:45;;;;;;;11.15;9.50;;;;;;;-141.48;100.00;69781.59;5186433;28;20028;-60
2022/04/28 09:10:29;;;;;;;8.90;8.20;;;;;;;-141.48;100.00;69781.59;5170373;28;20033;-61
2022/04/28 09:15:54;;;;;;;13.48;10.10;;;;;;;-141.48;100.00;69781.59;5187499;28;20609;-61
2022/04/28 09:18:25;;;;;;;10.10;9.38;;;;;;;-141.48;100.00;69781.59;5169928;28;20037;-59
2022/04/28 09:20:56;;;;;;;10.60;8.88;;;;;;;-141.48;100.00;69781.59;5186430;28;20026;-59
2022/04/28 09:23:26;;;;;;;11.00;10.18;;;;;;;-141.48;100.00;69781.59;5186093;28;20397;-59
2022/04/28 09:25:57;;;;;;;12.73;9.55;;;;;;;-141.48;100.00;69781.59;5170064;28;20030;-59
2022/04/28 09:28:28;;;;;;;9.00;8.30;;;;;;;-141.48;100.00;69781.59;5185780;28;20033;-58
2022/04/28 09:30:58;;;;;;;9.82;8.90;;;;;;;-141.48;100.00;69781.59;5169451;28;20032;-61
2022/04/28 09:33:29;;;;;;;13.93;10.23;;;;;;;-141.48;100.00;69781.59;5169204;28;20034;-58
2022/04/28 09:35:59;;;;;;;12.70;9.00;;;;;;;-141.48;100.00;69781.59;5185718;28;20024;-59
2022/04/28 09:38:30;;;;;;;10.02;9.32;;;;;;;-141.48;100.00;69781.59;5169550;28;20118;-62
2022/04/28 09:43:50;;;;;;;12.17;10.63;;;;;;;-141.48;100.00;69781.59;5187190;28;20117;-62
2022/04/28 09:46:24;;;;;;;10.30;9.25;;;;;;;-141.48;100.00;69781.59;5169236;28;20018;-61
2022/04/28 09:48:55;;;;;;;9.80;8.90;;;;;;;-141.48;100.00;69781.59;5169280;28;20034;-60
2022/04/28 09:51:28;;;;;;;10.25;9.30;;;;;;;-141.48;100.00;69781.59;5185265;28;20049;-58
2022/04/28 09:54:04;;;;;;;13.68;10.00;;;;;;;-141.48;100.00;69781.59;5169010;28;20026;-58
2022/04/28 09:56:36;;;;;;;12.77;7.68;;;;;;;-141.48;100.00;69781.59;5185547;28;20044;-60
2022/04/28 09:59:09;;;;;;;11.25;9.10;;;;;;;-141.48;100.00;69781.59;5169414;28;20033;-64
2022/04/28 10:01:40;;;;;;;9.90;8.95;;;;;;;-141.48;100.00;69781.59;5168487;28;20076;-62
2022/04/28 10:04:11;;;;;;;11.20;9.73;;;;;;;-141.48;100.00;69781.59;5184431;28;20037;-62
2022/04/28 10:06:41;;;;;;;9.80;8.77;;;;;;;-141.48;100.00;69781.59;5185385;28;20034;-60
2022/04/28 10:09:12;;;;;;;9.85;8.90;;;;;;;-141.48;100.00;69781.59;5185386;28;20536;-61
2022/04/28 10:11:44;;;;;;;11.80;7.97;;;;;;;-141.48;100.00;69781.59;5168533;28;20050;-60
2022/04/28 10:14:16;;;;;;;10.93;9.93;;;;;;;-141.48;100.00;69781.59;5184827;28;20030;-62
2022/04/28 10:16:49;;;;;;;17.63;10.57;;;;;;;-141.48;100.00;69781.59;5168611;28;20053;-61
2022/04/28 10:19:25;;;;;;;10.95;9.85;;;;;;;-141.48;100.00;69781.59;5168595;28;20038;-61
2022/04/28 10:22:03;;;;;;;10.68;9.82;;;;;;;-141.48;100.00;69781.59;5168329;28;20022;-61
2022/04/28 10:33:15;;;;;;;11.85;10.95;;;;;;;-141.48;100.00;69781.59;5185344;28;20410;-64
2022/04/28 10:35:54;;;;;;;10.27;9.32;;;;;;;-141.48;100.00;69781.59;5184101;28;20033;-62
2022/04/28 10:38:31;;;;;;;12.90;11.70;;;;;;;-141.48;100.00;69781.59;5167910;28;20493;-59
2022/04/28 10:41:10;;;;;;;14.32;10.93;;;;;;;-141.48;100.00;69781.59;5167235;28;20494;-61
2022/04/28 10:43:43;;;;;;;10.43;9.48;;;;;;;-141.48;100.00;69781.59;5184232;28;20072;-61
2022/04/28 10:46:22;;;;;;;9.32;8.48;;;;;;;-141.48;100.00;69781.59;5167864;28;20025;-58
2022/04/28 10:49:00;;;;;;;11.70;10.07;;;;;;;-141.48;100.00;69781.59;5184031;28;20113;-60
2022/04/28 10:51:32;;;;;;;10.43;8.65;;;;;;;-141.48;100.00;69781.59;5185259;28;20073;-62
2022/04/28 10:54:16;;;;;;;11.77;9.25;;;;;;;-141.48;100.00;69781.59;5183572;28;20025;-62
2022/04/28 10:56:54;;;;;;;11.38;10.43;;;;;;;-141.48;100.00;69781.59;5183596;28;20033;-62
2022/04/28 11:02:15;;;;;;;11.25;10.32;;;;;;;-141.48;100.00;69781.59;5184830;28;20090;-61
2022/04/28 11:05:01;;;;;;;11.20;10.05;;;;;;;-141.48;100.00;69781.59;5183470;28;20513;-60
2022/04/28 11:07:32;;;;;;;11.52;9.55;;;;;;;-141.48;100.00;69781.59;5167403;28;20117;-62
2022/04/28 11:10:04;;;;;;;11.82;10.18;;;;;;;-141.48;100.00;69781.59;5183662;28;20145;-58
2022/04/28 11:12:36;;;;;;;14.63;9.90;;;;;;;-141.48;100.00;69781.59;5183290;28;20505;-61
2022/04/28 11:15:10;;;;;;;10.95;10.00;;;;;;;-141.48;100.00;69781.59;5183595;28;20022;-61
2022/04/28 11:17:45;;;;;;;12.15;10.95;;;;;;;-141.48;100.00;69781.59;5166747;28;20041;-61
2022/04/28 11:20:21;;;;;;;10.90;9.77;;;;;;;-141.48;100.00;69781.59;5167380;28;20044;-58
2022/04/28 11:22:52;;;;;;;12.00;8.90;;;;;;;-141.48;100.00;69781.59;5166645;28;20033;-60
2022/04/28 11:25:23;;;;;;;21.60;12.57;;;;;;;-141.48;100.00;69781.59;5166766;28;20528;-62
2022/04/28 11:27:56;;;;;;;16.75;11.45;;;;;;;-141.48;100.00;69781.59;5167230;28;20122;-62
2022/04/28 11:30:27;;;;;;;18.98;11.63;;;;;;;-141.48;100.00;69781.59;5166757;28;20064;-61
2022/04/28 11:32:59;;;;;;;11.35;10.07;;;;;;;-141.48;100.00;69781.59;5167088;28;20053;-61
2022/04/28 11:35:35;;;;;;;17.85;9.68;;;;;;;-141.48;100.00;69781.59;5166365;28;20037;-61
2022/04/28 11:38:06;;;;;;;10.65;9.68;;;;;;;-141.48;100.00;69781.59;5166990;28;20033;-63
2022/04/28 11:40:38;;;;;;;12.95;11.43;;;;;;;-141.48;100.00;69781.59;5183334;28;20104;-62
2022/04/28 11:43:09;;;;;;;10.00;9.32;;;;;;;-141.48;100.00;69781.59;5182949;28;20036;-63
2022/04/28 11:45:41;;;;;;;11.35;10.35;;;;;;;-141.48;100.00;69781.59;5166525;28;20433;-64
2022/04/28 11:48:13;;;;;;;11.05;9.90;;;;;;;-141.48;100.00;69781.59;5183361;28;20511;-63
2022/04/28 11:50:43;;;;;;;12.52;11.35;;;;;;;-141.48;100.00;69781.59;5182698;28;20026;-60
2022/04/28 11:53:14;;;;;;;13.40;12.38;;;;;;;-141.48;100.00;69781.59;5166574;28;20394;-63
2022/04/28 11:55:44;;;;;;;10.85;9.60;;;;;;;-141.48;100.00;69781.59;5184269;28;20498;-63